Time;durP1;ratioP1;P1;durP2;ratioP2;P2;SDS_P1;SDS_P2;PMS_P1;PMS_P2;Temp;Humidity;BMP_temperature;BMP_pressure;BME280_temperature;BME280_humidity;BME280_pressure;Samples;Min_cycle;Max_cycle;Signal;HPM_P1;HPM_P2
2024/03/27 00:01:32;;;;;;;5.10;3.42;;;;;;;9.17;100.00;99300.28;5096005;28;20051;-63
2024/03/27 00:03:57;;;;;;;4.85;3.15;;;;;;;9.09;100.00;99295.81;5097326;28;20077;-63
2024/03/27 00:06:23;;;;;;;5.15;3.10;;;;;;;9.26;100.00;99297.47;5095714;28;20036;-63
2024/03/27 00:08:49;;;;;;;3.95;3.00;;;;;;;9.35;100.00;99293.03;5096965;28;20215;-65
2024/03/27 00:11:15;;;;;;;3.28;2.60;;;;;;;9.38;100.00;99295.38;5095447;28;20028;-65
2024/03/27 00:13:41;;;;;;;5.28;2.70;;;;;;;9.38;100.00;99291.91;5096887;28;20034;-62
2024/03/27 00:16:07;;;;;;;6.13;3.42;;;;;;;9.32;100.00;99290.72;5095647;28;20360;-62
2024/03/27 00:18:33;;;;;;;3.67;3.35;;;;;;;9.41;100.00;99287.09;5096480;28;20074;-63
2024/03/27 00:20:58;;;;;;;5.88;3.63;;;;;;;9.40;100.00;99285.44;5095549;28;20083;-62
2024/03/27 00:23:24;;;;;;;4.53;3.20;;;;;;;9.54;100.00;99286.59;5096559;28;20039;-63
2024/03/27 00:25:59;;;;;;;4.95;3.10;;;;;;;9.57;100.00;99276.53;5096449;28;20032;-64
2024/03/27 00:28:26;;;;;;;4.70;3.10;;;;;;;9.34;100.00;99279.97;5096251;28;20373;-63
2024/03/27 00:30:52;;;;;;;6.82;3.28;;;;;;;9.62;100.00;99280.47;5096275;28;20031;-62
2024/03/27 00:33:17;;;;;;;5.45;3.55;;;;;;;9.73;100.00;99293.34;5095747;28;20054;-62
2024/03/27 00:35:56;;;;;;;6.10;3.50;;;;;;;9.88;100.00;99300.44;5094855;28;20365;-63
2024/03/27 00:38:21;;;;;;;3.55;2.65;;;;;;;9.99;100.00;99301.06;5098166;28;20040;-65
2024/03/27 00:40:47;;;;;;;5.28;2.63;;;;;;;10.12;100.00;99296.91;5100343;28;20380;-65
2024/03/27 00:43:14;;;;;;;6.68;3.22;;;;;;;10.15;100.00;99287.81;5099781;28;20211;-62
2024/03/27 00:45:40;;;;;;;4.65;3.00;;;;;;;10.12;100.00;99291.59;5100716;28;20043;-62
2024/03/27 00:48:05;;;;;;;5.78;2.85;;;;;;;10.06;100.00;99288.81;5099615;28;20036;-63
2024/03/27 00:50:31;;;;;;;5.57;3.53;;;;;;;9.99;100.00;99280.72;5100478;28;20341;-62
2024/03/27 00:52:57;;;;;;;5.65;3.10;;;;;;;9.91;100.00;99280.75;5099065;28;20043;-63
2024/03/27 00:55:22;;;;;;;4.88;3.47;;;;;;;9.82;100.00;99277.31;5100883;28;20028;-63
2024/03/27 00:57:48;;;;;;;6.00;2.95;;;;;;;9.76;100.00;99275.34;5099349;28;20342;-62
2024/03/27 01:00:17;;;;;;;5.30;2.95;;;;;;;9.78;100.00;99278.63;5100202;28;20023;-63
2024/03/27 01:02:47;;;;;;;6.28;3.03;;;;;;;9.79;100.00;99280.28;5100116;28;20296;-64
2024/03/27 01:05:13;;;;;;;5.40;3.03;;;;;;;9.72;100.00;99270.56;5100020;28;20051;-64
2024/03/27 01:07:38;;;;;;;4.45;3.08;;;;;;;9.72;100.00;99266.09;5099304;28;20086;-62
2024/03/27 01:10:05;;;;;;;5.13;2.83;;;;;;;9.71;100.00;99258.31;5099016;28;20334;-63
2024/03/27 01:12:31;;;;;;;4.43;3.13;;;;;;;9.56;100.00;99274.88;5098873;28;20047;-62
2024/03/27 01:14:56;;;;;;;3.08;2.55;;;;;;;9.58;100.00;99274.69;5099926;28;20099;-65
2024/03/27 01:17:21;;;;;;;5.05;3.50;;;;;;;9.51;100.00;99279.84;5099027;28;20044;-64
2024/03/27 01:19:47;;;;;;;4.78;3.85;;;;;;;9.55;100.00;99277.69;5099133;28;20473;-62
2024/03/27 01:22:13;;;;;;;5.57;3.28;;;;;;;9.49;100.00;99265.13;5099497;28;20248;-62
2024/03/27 01:24:38;;;;;;;3.92;3.17;;;;;;;9.50;100.00;99272.91;5099490;28;20044;-63
2024/03/27 01:27:04;;;;;;;4.72;2.88;;;;;;;9.49;100.00;99275.69;5099698;28;20108;-62
2024/03/27 01:29:29;;;;;;;3.88;2.83;;;;;;;9.45;100.00;99263.81;5098368;28;20040;-62
2024/03/27 01:31:55;;;;;;;4.32;2.83;;;;;;;9.46;100.00;99260.19;5100626;28;20032;-63
2024/03/27 01:34:20;;;;;;;3.95;3.20;;;;;;;9.43;100.00;99260.50;5099262;28;20093;-62
2024/03/27 01:36:46;;;;;;;5.22;3.47;;;;;;;9.45;100.00;99261.19;5099825;28;20031;-65
2024/03/27 01:39:11;;;;;;;4.53;3.15;;;;;;;9.44;100.00;99270.91;5097728;28;20059;-63
2024/03/27 01:41:37;;;;;;;4.85;3.00;;;;;;;9.43;100.00;99268.44;5098717;28;20046;-62
2024/03/27 01:44:02;;;;;;;4.72;2.85;;;;;;;9.51;100.00;99258.69;5099699;28;20068;-63
2024/03/27 01:46:28;;;;;;;4.03;2.78;;;;;;;9.36;100.00;99262.13;5098570;28;20035;-62
2024/03/27 01:48:55;;;;;;;4.35;3.20;;;;;;;9.39;100.00;99254.75;5097203;28;20036;-62
2024/03/27 01:51:21;;;;;;;4.60;2.83;;;;;;;9.36;100.00;99272.72;5096929;28;20032;-63
2024/03/27 01:53:48;;;;;;;5.45;3.05;;;;;;;9.27;100.00;99282.44;5098585;28;20319;-63
2024/03/27 01:56:14;;;;;;;4.55;3.00;;;;;;;9.48;100.00;99279.34;5097691;28;20036;-65
2024/03/27 01:58:41;;;;;;;5.65;3.22;;;;;;;9.46;100.00;99283.97;5098888;28;20074;-65
2024/03/27 02:01:06;;;;;;;4.22;3.03;;;;;;;9.50;100.00;99285.28;5098577;28;20038;-62
2024/03/27 02:03:33;;;;;;;5.28;3.60;;;;;;;9.62;100.00;99281.31;5099052;28;20044;-63
2024/03/27 02:05:58;;;;;;;3.88;2.70;;;;;;;9.44;100.00;99278.03;5097529;28;20354;-62
2024/03/27 02:08:24;;;;;;;4.78;3.20;;;;;;;9.44;100.00;99278.84;5099969;28;20047;-65
2024/03/27 02:10:49;;;;;;;5.88;3.10;;;;;;;9.55;100.00;99262.66;5096640;28;20040;-65
2024/03/27 02:13:15;;;;;;;4.30;3.40;;;;;;;9.75;100.00;99268.41;5099600;28;20031;-62
2024/03/27 02:15:40;;;;;;;4.65;2.97;;;;;;;9.68;100.00;99259.50;5097483;28;20036;-62
2024/03/27 02:18:06;;;;;;;4.05;3.17;;;;;;;9.61;100.00;99255.88;5098685;28;20043;-62
2024/03/27 02:20:32;;;;;;;5.30;2.80;;;;;;;9.51;100.00;99261.34;5098003;28;20032;-63
2024/03/27 02:23:04;;;;;;;3.58;2.80;;;;;;;9.42;100.00;99262.34;5098237;28;20268;-63
2024/03/27 02:25:46;;;;;;;4.05;3.30;;;;;;;9.60;100.00;99255.03;5097780;28;20039;-63
2024/03/27 02:28:12;;;;;;;5.10;3.80;;;;;;;9.63;100.00;99258.34;5097801;28;20039;-63
2024/03/27 02:30:44;;;;;;;5.00;3.00;;;;;;;9.67;100.00;99262.31;5097500;28;20272;-65
2024/03/27 02:33:10;;;;;;;4.13;3.10;;;;;;;9.77;100.00;99262.94;5097999;28;20218;-65
2024/03/27 02:35:35;;;;;;;4.93;2.97;;;;;;;9.46;100.00;99257.53;5097878;28;20032;-62
2024/03/27 02:38:01;;;;;;;4.38;3.25;;;;;;;9.51;100.00;99266.63;5097621;28;20200;-63
2024/03/27 02:40:26;;;;;;;4.70;3.50;;;;;;;9.45;100.00;99258.53;5097667;28;20341;-63
2024/03/27 02:42:52;;;;;;;4.18;3.25;;;;;;;9.45;100.00;99254.06;5097429;28;20040;-65
2024/03/27 02:45:17;;;;;;;5.20;3.30;;;;;;;9.37;100.00;99247.97;5098497;28;20032;-65
2024/03/27 02:47:42;;;;;;;6.05;3.33;;;;;;;9.44;100.00;99248.94;5095963;28;20222;-62
2024/03/27 02:50:08;;;;;;;4.75;4.03;;;;;;;9.42;100.00;99257.03;5098137;28;20129;-63
2024/03/27 02:52:34;;;;;;;6.68;3.53;;;;;;;9.45;100.00;99254.06;5097238;28;20077;-62
2024/03/27 02:54:59;;;;;;;5.00;3.53;;;;;;;9.48;100.00;99259.03;5098108;28;20044;-62
2024/03/27 02:57:24;;;;;;;5.85;3.60;;;;;;;9.44;100.00;99260.34;5095343;28;20101;-62
2024/03/27 02:59:50;;;;;;;5.03;3.42;;;;;;;9.32;100.00;99261.66;5098028;28;20051;-63
2024/03/27 03:02:15;;;;;;;5.50;3.30;;;;;;;9.26;100.00;99257.84;5097696;28;20549;-63
2024/03/27 03:04:41;;;;;;;4.90;3.35;;;;;;;9.07;100.00;99254.72;5097685;28;20059;-65
2024/03/27 03:07:06;;;;;;;5.97;4.60;;;;;;;9.33;100.00;99260.66;5097143;28;20361;-63
2024/03/27 03:09:32;;;;;;;8.43;3.88;;;;;;;9.20;100.00;99261.16;5097363;28;20342;-63
2024/03/27 03:11:57;;;;;;;7.25;3.50;;;;;;;9.21;100.00;99259.34;5096953;28;20040;-63
2024/03/27 03:14:24;;;;;;;7.18;4.10;;;;;;;9.11;100.00;99258.66;5097349;28;20090;-63
2024/03/27 03:16:49;;;;;;;7.90;3.70;;;;;;;9.19;100.00;99261.31;5095969;28;20039;-62
2024/03/27 03:19:15;;;;;;;5.22;3.85;;;;;;;9.26;100.00;99265.78;5096591;28;20043;-63
2024/03/27 03:21:41;;;;;;;5.38;3.88;;;;;;;9.46;100.00;99265.47;5097310;28;20032;-62
2024/03/27 03:24:07;;;;;;;6.38;4.25;;;;;;;9.41;100.00;99265.13;5096331;28;20040;-65
2024/03/27 03:26:32;;;;;;;6.70;3.90;;;;;;;9.39;100.00;99269.75;5097451;28;20361;-64
2024/03/27 03:28:58;;;;;;;7.78;4.95;;;;;;;9.28;100.00;99273.53;5095892;28;20145;-63
2024/03/27 03:31:23;;;;;;;7.25;3.95;;;;;;;9.29;100.00;99275.19;5097119;28;20132;-63
2024/03/27 03:33:49;;;;;;;7.00;3.72;;;;;;;9.33;100.00;99276.50;5096803;28;20067;-62
2024/03/27 03:36:15;;;;;;;6.68;4.70;;;;;;;9.18;100.00;99267.59;5097208;28;20261;-65
2024/03/27 03:38:41;;;;;;;7.10;4.22;;;;;;;9.28;100.00;99265.59;5094109;28;20093;-65
2024/03/27 03:41:10;;;;;;;5.28;4.28;;;;;;;9.36;100.00;99262.97;5097164;28;20043;-63
2024/03/27 03:43:36;;;;;;;6.03;4.10;;;;;;;9.16;100.00;99264.28;5096467;28;20289;-63
2024/03/27 03:46:02;;;;;;;6.68;4.32;;;;;;;9.22;100.00;99269.75;5096217;28;20027;-63
2024/03/27 03:48:28;;;;;;;5.50;4.20;;;;;;;9.05;100.00;99276.00;5095795;28;20306;-62
2024/03/27 03:50:53;;;;;;;8.23;5.13;;;;;;;9.13;100.00;99272.53;5095906;28;20046;-63
2024/03/27 03:53:19;;;;;;;7.32;4.57;;;;;;;8.76;100.00;99287.00;5095568;28;20226;-63
2024/03/27 03:55:44;;;;;;;6.90;4.68;;;;;;;8.59;100.00;99272.94;5096066;28;20024;-64
2024/03/27 03:58:12;;;;;;;7.95;4.65;;;;;;;8.72;100.00;99279.56;5097224;28;20686;-65
2024/03/27 04:00:38;;;;;;;7.60;4.50;;;;;;;8.61;100.00;99272.78;5094769;28;20039;-65
2024/03/27 04:03:04;;;;;;;10.73;5.53;;;;;;;8.58;100.00;99263.38;5097249;28;20036;-63
2024/03/27 04:05:30;;;;;;;8.43;5.32;;;;;;;8.63;100.00;99269.00;5095667;28;20060;-63
2024/03/27 04:07:56;;;;;;;6.78;4.60;;;;;;;8.60;100.00;99273.78;5096744;28;20028;-63
2024/03/27 04:10:21;;;;;;;8.20;5.65;;;;;;;8.73;100.00;99275.94;5095233;28;20032;-66
2024/03/27 04:12:47;;;;;;;7.97;5.35;;;;;;;8.68;100.00;99272.97;5096059;28;20100;-66
2024/03/27 04:15:14;;;;;;;8.40;5.28;;;;;;;8.62;100.00;99274.44;5095366;28;20031;-63
2024/03/27 04:17:40;;;;;;;8.70;5.13;;;;;;;8.69;100.00;99271.97;5096809;28;20036;-63
2024/03/27 04:20:10;;;;;;;11.38;5.85;;;;;;;8.64;100.00;99267.19;5096160;28;20050;-63
2024/03/27 04:22:36;;;;;;;8.27;5.30;;;;;;;8.53;100.00;99275.41;5096325;28;20028;-63
2024/03/27 04:25:03;;;;;;;10.25;6.68;;;;;;;8.45;100.00;99273.56;5095208;28;20036;-63
2024/03/27 04:27:29;;;;;;;10.65;5.85;;;;;;;8.39;100.00;99279.47;5095484;28;20290;-63
2024/03/27 04:29:56;;;;;;;9.07;6.28;;;;;;;8.31;100.00;99267.03;5095020;28;20034;-63
2024/03/27 04:32:22;;;;;;;12.00;6.80;;;;;;;8.22;100.00;99243.41;5095535;28;20067;-65
2024/03/27 04:34:47;;;;;;;10.60;6.88;;;;;;;8.41;100.00;99281.97;5096156;28;20036;-62
2024/03/27 04:37:13;;;;;;;10.25;6.13;;;;;;;8.29;100.00;99276.06;5095969;28;20334;-63
2024/03/27 04:39:38;;;;;;;13.02;7.22;;;;;;;8.45;100.00;99286.75;5096841;28;20048;-63
2024/03/27 04:42:04;;;;;;;13.13;7.30;;;;;;;8.68;100.00;99286.16;5094859;28;20325;-65
2024/03/27 04:44:29;;;;;;;12.27;7.38;;;;;;;8.55;100.00;99286.63;5096898;28;20048;-66
2024/03/27 04:46:55;;;;;;;14.48;8.20;;;;;;;8.43;100.00;99290.53;5095301;28;20067;-64
2024/03/27 04:49:20;;;;;;;13.13;7.18;;;;;;;8.32;100.00;99284.53;5096865;28;20089;-64
2024/03/27 04:51:46;;;;;;;14.13;7.72;;;;;;;8.27;100.00;99296.50;5093792;28;20039;-63
2024/03/27 04:54:11;;;;;;;13.73;7.80;;;;;;;8.49;100.00;99297.81;5096066;28;20058;-64
2024/03/27 04:56:37;;;;;;;14.15;7.28;;;;;;;8.52;100.00;99287.78;5094833;28;20085;-64
2024/03/27 04:59:03;;;;;;;16.85;7.90;;;;;;;8.50;100.00;99305.56;5095239;28;20036;-65
2024/03/27 05:01:28;;;;;;;15.38;7.78;;;;;;;8.22;100.00;99270.63;5095629;28;20233;-64
2024/03/27 05:03:54;;;;;;;16.50;8.45;;;;;;;8.38;100.00;99300.75;5096440;28;20044;-64
2024/03/27 05:06:19;;;;;;;16.05;8.93;;;;;;;8.41;100.00;99305.69;5095193;28;20046;-66
2024/03/27 05:08:45;;;;;;;14.00;7.75;;;;;;;8.55;100.00;99313.84;5095916;28;20233;-66
2024/03/27 05:11:12;;;;;;;17.00;8.00;;;;;;;8.64;100.00;99312.88;5096829;28;20353;-64
2024/03/27 05:13:38;;;;;;;15.70;8.07;;;;;;;8.52;100.00;99303.59;5095149;28;20035;-64
2024/03/27 05:16:04;;;;;;;14.88;8.52;;;;;;;8.71;100.00;99302.50;5094567;28;20040;-65
2024/03/27 05:18:30;;;;;;;17.25;8.48;;;;;;;8.66;100.00;99309.25;5096404;28;20032;-67
2024/03/27 05:20:56;;;;;;;15.70;8.07;;;;;;;8.62;100.00;99314.03;5096459;28;20081;-63
2024/03/27 05:23:21;;;;;;;14.35;8.25;;;;;;;8.67;100.00;99306.44;5096667;28;20098;-64
2024/03/27 05:25:47;;;;;;;15.70;7.90;;;;;;;8.74;100.00;99302.19;5099449;28;20122;-64
2024/03/27 05:28:12;;;;;;;16.40;8.02;;;;;;;8.62;100.00;99308.75;5099319;28;20039;-64
2024/03/27 05:30:39;;;;;;;13.45;7.45;;;;;;;8.44;100.00;99313.31;5098450;28;20035;-66
2024/03/27 05:33:04;;;;;;;15.82;7.88;;;;;;;8.60;100.00;99316.00;5099459;28;20040;-64
2024/03/27 05:35:30;;;;;;;19.88;9.13;;;;;;;8.70;100.00;99305.31;5098899;28;20032;-64
2024/03/27 05:37:55;;;;;;;15.90;8.18;;;;;;;8.59;100.00;99306.44;5100071;28;20356;-62
2024/03/27 05:40:21;;;;;;;17.42;8.98;;;;;;;8.68;100.00;99313.38;5099358;28;20043;-65
2024/03/27 05:42:46;;;;;;;17.45;8.60;;;;;;;8.61;100.00;99312.38;5100412;28;20047;-66
2024/03/27 05:45:11;;;;;;;17.20;9.13;;;;;;;8.76;100.00;99323.13;5100145;28;20095;-66
2024/03/27 05:47:37;;;;;;;18.63;9.18;;;;;;;8.72;100.00;99320.00;5099789;28;20223;-64
2024/03/27 05:50:05;;;;;;;16.35;8.27;;;;;;;8.75;100.00;99334.69;5100418;28;20044;-64
2024/03/27 05:52:30;;;;;;;17.02;9.63;;;;;;;8.87;100.00;99339.50;5099172;28;20035;-64
2024/03/27 05:54:56;;;;;;;15.63;8.40;;;;;;;8.96;100.00;99335.91;5098832;28;20040;-64
2024/03/27 05:57:21;;;;;;;15.90;8.27;;;;;;;8.97;100.00;99331.44;5099122;28;20039;-64
2024/03/27 05:59:47;;;;;;;15.75;9.23;;;;;;;9.00;100.00;99338.22;5099185;28;20036;-64
2024/03/27 06:02:12;;;;;;;18.15;9.13;;;;;;;9.02;100.00;99326.50;5099401;28;20242;-63
2024/03/27 06:04:38;;;;;;;17.48;8.55;;;;;;;8.97;100.00;99323.53;5098852;28;20035;-67
2024/03/27 06:07:03;;;;;;;15.93;7.93;;;;;;;8.95;100.00;99338.69;5099369;28;20040;-64
2024/03/27 06:09:28;;;;;;;16.92;8.73;;;;;;;8.98;100.00;99348.13;5097491;28;20043;-63
2024/03/27 06:11:54;;;;;;;16.08;8.40;;;;;;;9.01;100.00;99347.78;5098724;28;20117;-63
2024/03/27 06:14:20;;;;;;;14.77;8.70;;;;;;;9.09;100.00;99346.00;5098550;28;20039;-63
2024/03/27 06:16:45;;;;;;;13.30;8.00;;;;;;;9.12;100.00;99350.13;5098951;28;20482;-64
2024/03/27 06:19:11;;;;;;;15.88;8.90;;;;;;;9.15;100.00;99357.72;5098536;28;20036;-66
2024/03/27 06:21:36;;;;;;;16.63;9.27;;;;;;;9.17;100.00;99347.81;5099527;28;20028;-64
2024/03/27 06:24:02;;;;;;;14.07;8.48;;;;;;;9.26;100.00;99346.84;5099180;28;20035;-64
2024/03/27 06:26:27;;;;;;;14.25;8.90;;;;;;;9.29;100.00;99336.78;5098341;28;20043;-64
2024/03/27 06:28:53;;;;;;;16.02;7.68;;;;;;;9.24;100.00;99352.28;5098612;28;20142;-64
2024/03/27 06:31:18;;;;;;;14.32;7.93;;;;;;;9.25;100.00;99351.31;5098451;28;20082;-64
2024/03/27 06:33:44;;;;;;;12.30;7.00;;;;;;;9.36;100.00;99358.09;5098358;28;20047;-64
2024/03/27 06:36:09;;;;;;;13.50;7.93;;;;;;;9.46;100.00;99361.44;5097609;28;20043;-66
2024/03/27 06:38:40;;;;;;;13.52;7.63;;;;;;;9.45;100.00;99345.75;5097819;28;20117;-65
2024/03/27 06:41:06;;;;;;;15.40;7.22;;;;;;;9.65;100.00;99355.00;5098878;28;20043;-64
2024/03/27 06:43:31;;;;;;;13.55;7.35;;;;;;;9.86;100.00;99346.56;5098665;28;20258;-63
2024/03/27 06:45:57;;;;;;;15.00;8.20;;;;;;;9.96;100.00;99347.19;5098594;28;20032;-63
2024/03/27 06:48:23;;;;;;;13.70;7.32;;;;;;;9.97;100.00;99356.78;5097831;28;20085;-66
2024/03/27 06:50:53;;;;;;;12.30;7.25;;;;;;;9.80;100.00;99355.97;5098041;28;20142;-66
2024/03/27 06:53:19;;;;;;;14.68;7.88;;;;;;;10.01;100.00;99354.63;5097979;28;20074;-64
2024/03/27 06:55:45;;;;;;;11.98;6.45;;;;;;;10.00;100.00;99363.56;5098224;28;20044;-63
2024/03/27 06:58:11;;;;;;;13.02;8.20;;;;;;;10.03;100.00;99353.47;5098133;28;20304;-63
2024/03/27 07:00:36;;;;;;;14.23;8.18;;;;;;;10.18;100.00;99364.19;5097873;28;20028;-64
2024/03/27 07:03:02;;;;;;;15.10;6.68;;;;;;;10.01;100.00;99363.38;5098260;28;20379;-63
2024/03/27 07:05:27;;;;;;;13.05;7.53;;;;;;;9.87;100.00;99366.72;5098112;28;20035;-63
2024/03/27 07:07:52;;;;;;;12.75;8.43;;;;;;;10.14;100.00;99382.22;5098044;28;20028;-64
2024/03/27 07:10:18;;;;;;;11.60;6.85;;;;;;;10.17;100.00;99389.00;5097803;28;20334;-64
2024/03/27 07:12:44;;;;;;;13.13;7.97;;;;;;;10.40;100.00;99371.47;5096852;28;20052;-66
2024/03/27 07:15:10;;;;;;;11.88;7.28;;;;;;;10.33;100.00;99373.13;5097827;28;20376;-66
2024/03/27 07:17:35;;;;;;;15.18;8.25;;;;;;;10.69;100.00;99378.81;5097690;28;20031;-64
2024/03/27 07:20:01;;;;;;;13.10;7.68;;;;;;;10.83;100.00;99374.63;5097932;28;20326;-64
2024/03/27 07:22:26;;;;;;;14.48;8.07;;;;;;;11.08;100.00;99380.63;5097369;28;20036;-64
2024/03/27 07:24:52;;;;;;;14.85;8.05;;;;;;;10.97;100.00;99371.25;5097701;28;20061;-66
2024/03/27 07:27:18;;;;;;;13.50;7.88;;;;;;;11.16;100.00;99375.28;5097050;28;20052;-66
2024/03/27 07:29:43;;;;;;;12.23;7.68;;;;;;;11.17;100.00;99377.75;5097813;28;20051;-64
2024/03/27 07:32:09;;;;;;;14.77;8.18;;;;;;;11.05;100.00;99373.84;5096837;28;20071;-63
2024/03/27 07:34:34;;;;;;;14.85;7.60;;;;;;;11.05;100.00;99376.50;5097481;28;20047;-64
2024/03/27 07:37:00;;;;;;;14.45;7.25;;;;;;;11.41;100.00;99378.59;5097216;28;20043;-64
2024/03/27 07:39:25;;;;;;;14.70;7.55;;;;;;;11.62;100.00;99391.22;5096689;28;20215;-64
2024/03/27 07:41:51;;;;;;;16.38;9.88;;;;;;;11.41;100.00;99394.50;5096734;28;20047;-64
2024/03/27 07:44:21;;;;;;;17.00;8.82;;;;;;;11.50;100.00;99390.81;5096839;28;20040;-64
2024/03/27 07:46:46;;;;;;;13.02;8.02;;;;;;;11.61;100.00;99397.53;5095464;28;20040;-64
2024/03/27 07:49:12;;;;;;;15.35;8.55;;;;;;;11.56;100.00;99400.72;5097763;28;20099;-64
2024/03/27 07:51:37;;;;;;;15.77;8.05;;;;;;;11.52;100.00;99397.59;5096783;28;20031;-67
2024/03/27 07:54:03;;;;;;;13.57;8.27;;;;;;;11.51;100.00;99390.66;5097541;28;20040;-66
2024/03/27 07:56:30;;;;;;;16.48;9.15;;;;;;;12.18;100.00;99386.47;5096824;28;20093;-64
2024/03/27 07:58:55;;;;;;;16.77;9.35;;;;;;;12.21;100.00;99381.63;5097639;28;20031;-64
2024/03/27 08:01:20;;;;;;;12.90;8.18;;;;;;;12.11;100.00;99370.44;5097404;28;20321;-64
2024/03/27 08:03:46;;;;;;;16.35;9.45;;;;;;;12.44;100.00;99387.69;5097293;28;20153;-64
2024/03/27 08:06:14;;;;;;;19.45;9.27;;;;;;;12.53;100.00;99391.09;5096484;28;20085;-64
2024/03/27 08:08:41;;;;;;;16.13;8.35;;;;;;;12.71;100.00;99388.06;5096696;28;20040;-66
2024/03/27 08:11:06;;;;;;;16.65;9.82;;;;;;;12.31;100.00;99384.00;5096915;28;20346;-64
2024/03/27 08:13:32;;;;;;;17.52;10.32;;;;;;;12.48;100.00;99374.84;5096103;28;20031;-64
2024/03/27 08:16:00;;;;;;;13.82;8.63;;;;;;;12.08;100.00;99368.16;5096024;28;20047;-63
2024/03/27 08:18:26;;;;;;;17.58;10.80;;;;;;;12.36;100.00;99363.88;5095892;28;20046;-64
2024/03/27 08:20:55;;;;;;;15.52;9.68;;;;;;;12.72;100.00;99365.81;5095967;28;20282;-64
2024/03/27 08:23:21;;;;;;;17.67;10.95;;;;;;;12.68;100.00;99357.38;5095901;28;20028;-64
2024/03/27 08:25:47;;;;;;;17.88;10.90;;;;;;;12.76;100.00;99357.28;5095950;28;20114;-63
2024/03/27 08:28:12;;;;;;;16.67;11.05;;;;;;;12.57;100.00;99363.16;5095927;28;20040;-64
2024/03/27 08:30:42;;;;;;;16.25;10.75;;;;;;;12.64;100.00;99353.44;5095806;28;20088;-67
2024/03/27 08:33:07;;;;;;;15.23;10.32;;;;;;;12.73;100.00;99352.34;5096350;28;20036;-64
2024/03/27 08:35:39;;;;;;;15.98;9.35;;;;;;;12.49;100.00;99350.00;5096202;28;20081;-64
2024/03/27 08:38:05;;;;;;;16.48;10.15;;;;;;;12.52;100.00;99346.97;5095727;28;21027;-64
2024/03/27 08:40:32;;;;;;;16.40;10.18;;;;;;;12.38;100.00;99351.25;5095847;28;20062;-64
2024/03/27 08:42:58;;;;;;;18.50;10.85;;;;;;;12.40;100.00;99356.38;5094576;28;20073;-65
2024/03/27 08:45:24;;;;;;;15.75;10.25;;;;;;;12.48;100.00;99345.66;5095444;28;20044;-64
2024/03/27 08:47:49;;;;;;;15.13;9.50;;;;;;;12.60;100.00;99341.56;5095031;28;20050;-64
2024/03/27 08:50:15;;;;;;;17.10;10.73;;;;;;;12.92;100.00;99352.78;5094796;28;20758;-64
2024/03/27 08:52:42;;;;;;;16.13;10.30;;;;;;;12.73;100.00;99356.84;5094961;28;20028;-66
2024/03/27 08:55:08;;;;;;;18.42;11.70;;;;;;;13.16;100.00;99348.94;5095720;28;20322;-65
2024/03/27 08:57:33;;;;;;;14.35;8.77;;;;;;;13.25;100.00;99356.66;5095807;28;20322;-64
2024/03/27 08:59:59;;;;;;;16.48;10.45;;;;;;;13.10;100.00;99356.66;5099946;28;20089;-64
2024/03/27 09:02:25;;;;;;;17.58;10.68;;;;;;;13.29;100.00;99349.13;5099199;28;20036;-63
2024/03/27 09:04:51;;;;;;;15.50;10.75;;;;;;;13.28;100.00;99352.78;5100231;28;20031;-64
2024/03/27 09:07:17;;;;;;;18.80;12.40;;;;;;;13.27;100.00;99349.31;5099757;28;20048;-64
2024/03/27 09:09:43;;;;;;;16.67;11.73;;;;;;;13.47;100.00;99354.00;5099881;28;20036;-66
2024/03/27 09:12:09;;;;;;;14.93;9.55;;;;;;;13.41;100.00;99348.44;5099434;28;20039;-66
2024/03/27 09:14:35;;;;;;;16.50;11.98;;;;;;;13.38;100.00;99345.31;5099939;28;20099;-64
2024/03/27 09:17:01;;;;;;;16.17;11.65;;;;;;;13.23;100.00;99349.88;5097290;28;20115;-65
2024/03/27 09:19:26;;;;;;;18.38;12.85;;;;;;;13.43;100.00;99346.41;5098714;28;20040;-65
2024/03/27 09:21:52;;;;;;;18.38;12.00;;;;;;;13.55;100.00;99335.28;5098403;28;20285;-64
2024/03/27 09:24:17;;;;;;;18.40;11.75;;;;;;;13.58;100.00;99330.41;5099134;28;20028;-64
2024/03/27 09:26:43;;;;;;;16.30;10.98;;;;;;;13.78;100.00;99346.53;5098478;28;20085;-63
2024/03/27 09:29:08;;;;;;;16.10;12.57;;;;;;;13.93;100.00;99341.94;5098728;28;20047;-63
2024/03/27 09:31:34;;;;;;;15.93;11.13;;;;;;;14.10;100.00;99339.00;5097962;28;20036;-62
2024/03/27 09:33:59;;;;;;;14.98;10.25;;;;;;;14.35;100.00;99341.00;5099145;28;20314;-62
2024/03/27 09:36:25;;;;;;;14.48;10.98;;;;;;;14.33;100.00;99347.53;5098353;28;20039;-62
2024/03/27 09:38:50;;;;;;;15.57;12.07;;;;;;;14.61;100.00;99337.72;5098522;28;20039;-65
2024/03/27 09:41:16;;;;;;;17.48;11.65;;;;;;;14.70;100.00;99341.03;5098756;28;20031;-63
2024/03/27 09:43:43;;;;;;;16.48;11.32;;;;;;;14.20;100.00;99337.63;5098673;28;20036;-62
2024/03/27 09:46:09;;;;;;;15.27;10.90;;;;;;;14.45;99.71;99339.84;5097687;28;20058;-62
2024/03/27 09:48:38;;;;;;;18.48;12.18;;;;;;;14.54;100.00;99323.50;5098332;28;20411;-64
2024/03/27 09:51:05;;;;;;;16.45;11.60;;;;;;;14.58;98.99;99340.78;5096221;28;20086;-64
2024/03/27 09:53:30;;;;;;;14.02;11.05;;;;;;;14.77;97.62;99338.41;5098286;28;20088;-62
2024/03/27 09:55:56;;;;;;;15.50;11.32;;;;;;;14.99;98.15;99334.56;5095968;28;20334;-62
2024/03/27 09:58:22;;;;;;;18.85;12.43;;;;;;;14.83;100.00;99324.28;5098357;28;20306;-62
2024/03/27 10:00:48;;;;;;;12.93;11.23;;;;;;;14.89;100.00;99318.13;5097239;28;20043;-62
2024/03/27 10:03:14;;;;;;;15.18;12.05;;;;;;;14.93;100.00;99324.72;5117520;28;20216;-64
2024/03/27 10:05:42;;;;;;;15.52;12.35;;;;;;;14.91;100.00;99324.91;5104830;28;20346;-62
2024/03/27 10:08:08;;;;;;;15.82;12.38;;;;;;;15.12;99.46;99329.28;5098053;28;20036;-62
2024/03/27 10:10:34;;;;;;;15.73;12.38;;;;;;;15.06;100.00;99334.59;5096905;28;20040;-62
2024/03/27 10:13:00;;;;;;;14.32;11.23;;;;;;;15.12;99.47;99328.47;5097813;28;20313;-61
2024/03/27 10:15:28;;;;;;;15.32;12.48;;;;;;;15.25;100.00;99331.16;5097838;28;20047;-65
2024/03/27 10:17:55;;;;;;;16.58;12.50;;;;;;;14.93;100.00;99336.19;5098031;28;20093;-64
2024/03/27 10:20:21;;;;;;;15.73;13.07;;;;;;;14.68;100.00;99311.09;5095869;28;20040;-62
2024/03/27 10:22:46;;;;;;;15.48;12.82;;;;;;;14.38;100.00;99311.31;5096397;28;20051;-62
2024/03/27 10:25:13;;;;;;;17.15;12.85;;;;;;;14.60;100.00;99317.41;5096835;28;20297;-62
2024/03/27 10:27:39;;;;;;;15.23;11.57;;;;;;;14.74;98.84;99309.47;5096666;28;20303;-64
2024/03/27 10:30:10;;;;;;;15.02;12.75;;;;;;;14.92;98.49;99309.75;5097628;28;20089;-64
2024/03/27 10:32:36;;;;;;;16.00;12.75;;;;;;;15.07;100.00;99305.06;5095384;28;20325;-62
2024/03/27 10:35:02;;;;;;;14.27;12.38;;;;;;;15.30;100.00;99305.53;5098040;28;20031;-62
2024/03/27 10:37:28;;;;;;;14.52;12.35;;;;;;;15.47;100.00;99294.47;5095881;28;20087;-62
2024/03/27 10:39:54;;;;;;;17.17;12.60;;;;;;;15.61;99.24;99301.50;5096778;28;20031;-62
2024/03/27 10:42:23;;;;;;;17.02;11.00;;;;;;;15.62;98.55;99297.81;5096002;28;20040;-64
2024/03/27 10:44:53;;;;;;;14.18;11.20;;;;;;;15.62;100.00;99290.63;5096892;28;20063;-61
2024/03/27 10:47:23;;;;;;;14.68;11.55;;;;;;;15.35;99.82;99294.25;5096156;28;20055;-62
2024/03/27 10:49:50;;;;;;;13.88;11.82;;;;;;;15.26;99.33;99304.28;5097517;28;20027;-61
2024/03/27 10:52:17;;;;;;;15.00;12.20;;;;;;;15.46;98.48;99288.28;5095943;28;20047;-62
2024/03/27 10:54:44;;;;;;;13.20;11.70;;;;;;;15.50;99.47;99292.19;5095479;28;20064;-64
2024/03/27 10:57:19;;;;;;;15.57;12.75;;;;;;;15.66;97.48;99288.38;5095180;28;20032;-64
2024/03/27 10:59:49;;;;;;;16.67;12.05;;;;;;;15.71;98.28;99288.56;5098001;28;20024;-62
2024/03/27 11:02:18;;;;;;;13.57;11.15;;;;;;;15.50;97.88;99286.88;5096104;28;20377;-62
2024/03/27 11:04:56;;;;;;;18.80;12.02;;;;;;;15.22;100.00;99281.72;5096493;28;20069;-62
2024/03/27 11:07:22;;;;;;;14.68;10.95;;;;;;;15.33;98.32;99286.44;5096102;28;20043;-64
2024/03/27 11:09:53;;;;;;;15.35;11.65;;;;;;;15.10;100.00;99278.00;5096770;28;20043;-64
2024/03/27 11:12:21;;;;;;;17.63;12.65;;;;;;;15.19;100.00;99271.44;5096699;28;20040;-65
2024/03/27 11:14:48;;;;;;;15.55;11.20;;;;;;;15.17;100.00;99267.34;5096842;28;20051;-62
2024/03/27 11:17:14;;;;;;;14.32;11.40;;;;;;;15.13;100.00;99266.09;5096345;28;20032;-66
2024/03/27 11:19:41;;;;;;;17.70;12.60;;;;;;;15.25;100.00;99265.31;5096193;28;20040;-66